Time;durP1;ratioP1;P1;durP2;ratioP2;P2;SDS_P1;SDS_P2;PMS_P1;PMS_P2;Temp;Humidity;BMP_temperature;BMP_pressure;BME280_temperature;BME280_humidity;BME280_pressure;Samples;Min_cycle;Max_cycle;Signal;HPM_P1;HPM_P2
2021/12/16 00:02:01;;;;;;;12.88;4.90;;;9.80;99.90;;;;;;5045358;28;20055;-87
2021/12/16 00:05:09;;;;;;;22.48;5.93;;;8.50;99.90;;;;;;5027884;28;20136;-87
2021/12/16 00:07:24;;;;;;;11.70;5.30;;;8.50;99.90;;;;;;5045259;28;20505;-87
2021/12/16 00:10:30;;;;;;;11.48;5.40;;;8.70;99.90;;;;;;5044890;28;20095;-87
2021/12/16 00:34:01;;;;;;;15.30;5.70;;;10.40;99.90;;;;;;5049952;28;20102;-88
2021/12/16 00:36:30;;;;;;;20.30;5.72;;;10.10;99.90;;;;;;5050567;28;20539;-89
2021/12/16 00:38:56;;;;;;;15.68;5.20;;;8.70;99.90;;;;;;5031270;28;20067;-88
2021/12/16 00:41:22;;;;;;;16.42;5.68;;;8.70;99.90;;;;;;5032304;28;20408;-88
2021/12/16 00:44:36;;;;;;;15.05;6.00;;;10.20;99.90;;;;;;5028706;28;20052;-88
2021/12/16 00:54:45;;;;;;;18.23;5.10;;;9.90;99.90;;;;;;5043316;28;20049;-88
2021/12/16 00:57:14;;;;;;;11.63;4.80;;;8.90;99.90;;;;;;5044708;28;20056;-88
2021/12/16 00:59:45;;;;;;;21.13;5.70;;;9.20;99.90;;;;;;5026811;28;20120;-88
2021/12/16 01:02:37;;;;;;;18.00;5.63;;;8.80;99.90;;;;;;5027890;28;20933;-89
2021/12/16 01:35:45;;;;;;;10.43;4.60;;;9.30;99.90;;;;;;5043208;28;20140;-88
2021/12/16 01:51:25;;;;;;;11.10;4.15;;;9.70;99.90;;;;;;5042183;28;20060;-88
2021/12/16 01:57:15;;;;;;;16.77;3.97;;;8.90;99.90;;;;;;5043165;28;20103;-87
2021/12/16 01:59:45;;;;;;;11.32;4.88;;;10.50;99.90;;;;;;5041874;28;20041;-88
2021/12/16 02:02:45;;;;;;;13.85;4.07;;;9.30;99.90;;;;;;5042892;28;20127;-88
2021/12/16 02:05:29;;;;;;;13.52;4.15;;;9.00;99.90;;;;;;5042886;28;20064;-87
2021/12/16 02:10:37;;;;;;;14.77;4.50;;;9.70;99.90;;;;;;5043322;28;20053;-89
2021/12/16 02:13:33;;;;;;;11.27;4.15;;;10.70;99.90;;;;;;5026363;28;20071;-88
2021/12/16 02:30:21;;;;;;;9.43;3.92;;;9.00;99.90;;;;;;5041729;28;20056;-87
2021/12/16 02:37:36;;;;;;;13.57;5.13;;;9.00;99.90;;;;;;5048082;28;20089;-88
2021/12/16 02:40:05;;;;;;;15.80;4.05;;;9.00;99.90;;;;;;5049687;28;20489;-88
2021/12/16 02:42:38;;;;;;;10.73;3.63;;;8.90;99.90;;;;;;5052107;28;20052;-88
2021/12/16 02:50:22;;;;;;;9.75;3.70;;;8.90;99.90;;;;;;5053394;28;20107;-88
2021/12/16 02:52:48;;;;;;;14.38;4.60;;;8.90;99.90;;;;;;5035654;28;20066;-89
2021/12/16 02:55:18;;;;;;;12.93;4.20;;;8.90;99.90;;;;;;5032034;28;20049;-88
2021/12/16 02:57:51;;;;;;;10.50;3.95;;;10.70;99.90;;;;;;5051266;28;20130;-88
2021/12/16 03:00:17;;;;;;;14.65;3.88;;;8.80;99.90;;;;;;5048660;28;20048;-88
2021/12/16 03:02:46;;;;;;;10.75;4.13;;;9.90;99.90;;;;;;5048739;28;20040;-88
2021/12/16 03:05:13;;;;;;;17.33;4.43;;;9.50;99.90;;;;;;5032727;28;20052;-89
2021/12/16 03:07:39;;;;;;;13.68;3.90;;;9.90;99.90;;;;;;5047864;28;20037;-88
2021/12/16 03:18:26;;;;;;;13.20;4.53;;;8.60;99.90;;;;;;5049526;28;20044;-88
2021/12/16 03:21:03;;;;;;;14.63;4.88;;;9.50;99.90;;;;;;5047817;28;20045;-89
2021/12/16 03:26:39;;;;;;;13.40;4.43;;;8.70;99.90;;;;;;5049018;28;20514;-88
2021/12/16 03:38:50;;;;;;;10.68;4.05;;;8.50;99.90;;;;;;5048260;28;20140;-87
2021/12/16 03:41:16;;;;;;;10.32;4.10;;;10.20;99.90;;;;;;5031664;28;20049;-88
2021/12/16 03:43:43;;;;;;;7.18;3.83;;;9.70;99.90;;;;;;5032618;28;20051;-88
2021/12/16 03:49:03;;;;;;;11.60;4.38;;;8.10;99.90;;;;;;5045673;28;20045;-88
2021/12/16 03:51:54;;;;;;;16.13;4.53;;;8.10;99.90;;;;;;5045025;28;20048;-88
2021/12/16 03:54:24;;;;;;;10.75;4.15;;;8.10;99.90;;;;;;5028059;28;20115;-87
2021/12/16 03:56:51;;;;;;;15.18;4.75;;;8.40;99.90;;;;;;5045792;28;20041;-88
2021/12/16 03:59:21;;;;;;;12.20;4.53;;;8.00;99.90;;;;;;5027665;28;20091;-88
2021/12/16 04:01:47;;;;;;;10.73;4.80;;;7.90;99.90;;;;;;5046520;28;20466;-88
2021/12/16 04:04:13;;;;;;;12.68;4.78;;;6.00;99.90;;;;;;5028834;28;20045;-87
2021/12/16 04:06:39;;;;;;;11.63;4.47;;;8.60;99.90;;;;;;5045759;28;20041;-87
2021/12/16 04:09:08;;;;;;;13.40;5.05;;;7.80;99.90;;;;;;5028507;28;20094;-89
2021/12/16 04:11:41;;;;;;;10.48;4.70;;;8.70;99.90;;;;;;5044443;28;20072;-87
2021/12/16 04:14:11;;;;;;;8.87;3.80;;;7.80;99.90;;;;;;5045912;28;20443;-88
2021/12/16 04:16:42;;;;;;;11.40;4.65;;;9.20;99.90;;;;;;5028329;28;20386;-87
2021/12/16 04:19:12;;;;;;;17.58;5.60;;;7.80;99.90;;;;;;5045930;28;20556;-88
2021/12/16 04:21:42;;;;;;;17.67;5.63;;;9.90;99.90;;;;;;5045812;28;20485;-88
2021/12/16 04:24:08;;;;;;;11.25;5.05;;;9.90;99.90;;;;;;5044602;28;20041;-87
2021/12/16 04:26:34;;;;;;;21.27;5.45;;;9.60;99.90;;;;;;5045010;28;20068;-87
2021/12/16 04:29:00;;;;;;;18.35;5.25;;;7.80;99.90;;;;;;5060270;28;20049;-88
2021/12/16 04:31:26;;;;;;;12.20;5.22;;;7.80;99.90;;;;;;5028618;28;20692;-88
2021/12/16 04:33:52;;;;;;;14.57;5.07;;;10.00;99.90;;;;;;5027677;28;20194;-88
2021/12/16 04:36:18;;;;;;;10.48;5.60;;;7.80;99.90;;;;;;5028455;28;20576;-88
2021/12/16 04:38:46;;;;;;;9.90;5.13;;;7.70;99.90;;;;;;5027681;28;20515;-88
2021/12/16 04:41:13;;;;;;;14.25;5.38;;;7.70;99.90;;;;;;5027670;28;20045;-88
2021/12/16 04:43:44;;;;;;;15.45;4.85;;;7.70;99.90;;;;;;5028376;28;20125;-88
2021/12/16 04:46:14;;;;;;;16.35;4.57;;;7.60;99.90;;;;;;5043257;28;20045;-88
2021/12/16 04:48:43;;;;;;;12.07;5.25;;;7.60;99.90;;;;;;5045004;28;20060;-88
2021/12/16 04:51:10;;;;;;;11.07;4.75;;;8.00;99.90;;;;;;5043975;28;20126;-88
2021/12/16 04:53:36;;;;;;;14.80;4.80;;;7.50;99.90;;;;;;5028102;28;20055;-88
2021/12/16 04:56:04;;;;;;;17.13;5.47;;;7.50;99.90;;;;;;5044726;28;20072;-88
2021/12/16 04:58:30;;;;;;;21.33;5.30;;;7.40;99.90;;;;;;5026991;28;20088;-87
2021/12/16 05:00:56;;;;;;;10.00;5.15;;;8.30;99.90;;;;;;5044991;28;20044;-88
2021/12/16 05:03:24;;;;;;;14.25;4.65;;;7.30;99.90;;;;;;5027875;28;20083;-88
2021/12/16 05:05:51;;;;;;;18.75;6.25;;;9.10;99.90;;;;;;5045941;28;20037;-88
2021/12/16 05:08:16;;;;;;;14.73;5.53;;;8.20;99.90;;;;;;5029062;28;20045;-88
2021/12/16 05:10:43;;;;;;;9.98;4.63;;;8.70;99.90;;;;;;5047920;28;20132;-88
2021/12/16 05:13:09;;;;;;;16.42;5.07;;;7.20;99.90;;;;;;5029984;28;20057;-87
2021/12/16 05:15:38;;;;;;;16.20;5.82;;;8.10;99.90;;;;;;5044366;28;20041;-87
2021/12/16 05:18:08;;;;;;;13.90;4.88;;;7.10;99.90;;;;;;5044164;28;20081;-86
2021/12/16 05:20:42;;;;;;;22.05;5.57;;;9.20;99.90;;;;;;5042787;28;20119;-86
2021/12/16 05:28:22;;;;;;;14.48;5.80;;;8.60;99.90;;;;;;5043356;28;20507;-87
2021/12/16 05:30:49;;;;;;;13.50;5.13;;;7.90;99.90;;;;;;5043762;28;20052;-87
2021/12/16 05:33:16;;;;;;;17.85;5.30;;;7.10;99.90;;;;;;5026219;28;20044;-87
2021/12/16 05:35:42;;;;;;;18.95;5.93;;;7.10;99.90;;;;;;5044248;28;20404;-87
2021/12/16 05:38:08;;;;;;;16.45;7.15;;;7.20;99.90;;;;;;5042897;28;20537;-87
2021/12/16 05:40:34;;;;;;;15.13;4.95;;;7.20;99.90;;;;;;5026678;28;20041;-86
2021/12/16 05:43:09;;;;;;;10.32;5.80;;;7.30;99.90;;;;;;5042960;28;20562;-86
2021/12/16 05:45:36;;;;;;;17.05;6.55;;;7.30;99.90;;;;;;5026139;28;20131;-87
2021/12/16 05:48:05;;;;;;;11.48;5.20;;;8.90;99.90;;;;;;5027299;28;20044;-87
2021/12/16 05:50:34;;;;;;;11.10;5.22;;;7.30;99.90;;;;;;5026203;28;20439;-87
2021/12/16 05:53:00;;;;;;;14.23;5.82;;;7.30;99.90;;;;;;5043833;28;20130;-89
2021/12/16 05:55:26;;;;;;;12.00;4.55;;;7.30;99.90;;;;;;5042725;28;20036;-87
2021/12/16 05:57:52;;;;;;;11.20;5.15;;;8.80;99.90;;;;;;5026451;28;20128;-91
2021/12/16 06:00:24;;;;;;;16.02;5.28;;;8.80;99.90;;;;;;5026353;28;20051;-84
2021/12/16 06:02:50;;;;;;;10.88;4.93;;;7.30;99.90;;;;;;5042492;28;20072;-88
2021/12/16 06:05:17;;;;;;;24.80;6.18;;;8.40;99.90;;;;;;5042947;28;20495;-88
2021/12/16 06:07:43;;;;;;;20.13;5.30;;;9.20;99.90;;;;;;5024850;28;20544;-88
2021/12/16 06:10:20;;;;;;;17.17;5.28;;;7.30;99.90;;;;;;5026285;28;20080;-88
2021/12/16 06:12:46;;;;;;;15.50;5.57;;;9.50;99.90;;;;;;5057657;28;20488;-88
2021/12/16 06:15:23;;;;;;;15.48;5.97;;;7.40;99.90;;;;;;5058758;28;20045;-89
2021/12/16 06:28:34;;;;;;;13.90;5.30;;;7.40;99.90;;;;;;5041353;28;20143;-87
2021/12/16 06:31:00;;;;;;;15.18;5.32;;;7.40;99.90;;;;;;5042813;28;20370;-85
2021/12/16 06:33:26;;;;;;;13.25;6.00;;;8.90;99.90;;;;;;5041452;28;20049;-87
2021/12/16 06:35:54;;;;;;;17.30;6.07;;;9.20;99.90;;;;;;5042950;28;20045;-88
2021/12/16 06:38:21;;;;;;;15.10;5.03;;;7.40;99.90;;;;;;5042980;28;20535;-85
2021/12/16 06:40:49;;;;;;;19.10;6.38;;;7.40;99.90;;;;;;5042391;28;20119;-84
2021/12/16 06:43:17;;;;;;;19.70;5.93;;;9.00;99.90;;;;;;5042963;28;20049;-85
2021/12/16 06:45:47;;;;;;;13.55;5.53;;;9.60;99.90;;;;;;5041267;28;20037;-87
2021/12/16 06:48:18;;;;;;;18.02;6.53;;;7.70;99.90;;;;;;5042789;28;20056;-85
2021/12/16 06:53:22;;;;;;;24.75;5.35;;;7.50;99.90;;;;;;5043138;28;20068;-87
2021/12/16 06:55:57;;;;;;;11.88;5.90;;;7.50;99.90;;;;;;5026107;28;20033;-87
2021/12/16 06:58:48;;;;;;;18.83;6.32;;;8.40;99.90;;;;;;5025397;28;20072;-88
2021/12/16 07:01:17;;;;;;;17.02;5.28;;;7.50;99.90;;;;;;5042291;28;20111;-84
2021/12/16 07:03:47;;;;;;;25.60;6.05;;;8.50;99.90;;;;;;5025062;28;20162;-85
2021/12/16 07:06:16;;;;;;;14.20;5.68;;;8.30;99.90;;;;;;5058511;28;20052;-88
2021/12/16 07:08:42;;;;;;;16.58;5.97;;;7.60;99.90;;;;;;5025582;28;20036;-88
2021/12/16 07:11:09;;;;;;;17.63;5.95;;;9.10;99.90;;;;;;5024958;28;20150;-88
2021/12/16 07:13:39;;;;;;;17.55;5.93;;;7.60;99.90;;;;;;5043497;28;20402;-89
2021/12/16 07:16:05;;;;;;;21.33;6.53;;;8.00;99.90;;;;;;5026001;28;20122;-89
2021/12/16 07:18:31;;;;;;;22.05;5.80;;;7.60;99.90;;;;;;5030163;28;20049;-90
2021/12/16 07:20:57;;;;;;;17.27;6.03;;;7.60;99.90;;;;;;5045525;28;20832;-89
2021/12/16 07:23:23;;;;;;;15.10;5.45;;;7.60;99.90;;;;;;5065331;28;20053;-89
2021/12/16 07:25:49;;;;;;;20.40;6.40;;;7.70;99.90;;;;;;5033359;28;20057;-89
2021/12/16 07:28:15;;;;;;;15.23;5.88;;;7.90;99.90;;;;;;5032057;28;20048;-89
2021/12/16 07:30:42;;;;;;;12.18;5.30;;;7.80;99.90;;;;;;5031801;28;20041;-89
2021/12/16 07:33:09;;;;;;;19.30;6.28;;;7.60;99.90;;;;;;5027520;28;20125;-89
2021/12/16 07:35:36;;;;;;;16.20;5.95;;;7.50;99.90;;;;;;5029002;28;20132;-89
2021/12/16 07:38:03;;;;;;;17.33;6.45;;;7.50;99.90;;;;;;5026728;28;20060;-89
2021/12/16 07:40:30;;;;;;;25.88;6.55;;;7.90;99.90;;;;;;5028527;28;20059;-88
2021/12/16 07:45:31;;;;;;;12.55;5.32;;;7.50;99.90;;;;;;5044366;28;20049;-88
2021/12/16 07:47:58;;;;;;;11.85;5.80;;;9.30;99.90;;;;;;5027732;28;20081;-88
2021/12/16 07:50:25;;;;;;;13.15;6.00;;;8.90;99.90;;;;;;5027437;28;20048;-88
2021/12/16 07:52:51;;;;;;;24.70;6.20;;;8.90;99.90;;;;;;5028972;28;20136;-88
2021/12/16 07:55:18;;;;;;;29.75;6.53;;;8.90;99.90;;;;;;5027163;28;20056;-88
2021/12/16 07:57:44;;;;;;;13.93;5.70;;;8.20;99.90;;;;;;5028352;28;20045;-88
2021/12/16 08:00:19;;;;;;;16.25;5.88;;;7.30;99.90;;;;;;5044824;28;20080;-87
2021/12/16 08:02:45;;;;;;;17.67;6.32;;;7.30;99.90;;;;;;5026013;28;20048;-87
2021/12/16 08:05:12;;;;;;;26.50;6.85;;;7.20;99.90;;;;;;5044982;28;20568;-88
2021/12/16 08:07:38;;;;;;;15.40;6.97;;;8.60;99.90;;;;;;5027312;28;20052;-87
2021/12/16 08:10:11;;;;;;;20.38;7.10;;;7.20;99.90;;;;;;5044310;28;20427;-87
2021/12/16 08:12:37;;;;;;;19.23;6.65;;;7.20;99.90;;;;;;5026877;28;20470;-86
2021/12/16 08:15:04;;;;;;;21.73;7.28;;;7.20;99.90;;;;;;5043643;28;20045;-86
2021/12/16 08:17:30;;;;;;;14.60;7.10;;;7.20;99.90;;;;;;5025913;28;20424;-85
2021/12/16 08:19:56;;;;;;;25.33;7.13;;;7.20;99.90;;;;;;5042742;28;20045;-85
2021/12/16 08:22:21;;;;;;;14.13;6.47;;;7.10;99.90;;;;;;5044777;28;20044;-86
2021/12/16 08:24:47;;;;;;;15.18;6.88;;;7.20;99.90;;;;;;5026816;28;20056;-86
2021/12/16 08:27:14;;;;;;;11.48;6.68;;;7.20;99.90;;;;;;5045271;28;20094;-90
2021/12/16 08:29:40;;;;;;;15.20;7.65;;;7.30;99.90;;;;;;5027079;28;20404;-90
2021/12/16 08:32:07;;;;;;;14.98;7.32;;;7.30;99.90;;;;;;5028133;28;20124;-89
2021/12/16 08:34:36;;;;;;;19.60;7.30;;;7.30;99.90;;;;;;5026406;28;20049;-90
2021/12/16 08:37:02;;;;;;;16.40;7.45;;;7.40;99.90;;;;;;5043495;28;20092;-90
2021/12/16 08:39:29;;;;;;;21.88;8.70;;;7.40;99.90;;;;;;5028270;28;20045;-89
2021/12/16 08:41:58;;;;;;;24.27;8.43;;;7.50;99.90;;;;;;5027593;28;20045;-92
2021/12/16 08:44:24;;;;;;;14.35;7.35;;;7.50;99.90;;;;;;5028916;28;20037;-92
2021/12/16 08:46:53;;;;;;;23.15;7.80;;;9.30;99.90;;;;;;5027276;28;20049;-92
2021/12/16 08:49:20;;;;;;;23.30;9.00;;;7.60;99.90;;;;;;5029285;28;20136;-92
2021/12/16 08:51:50;;;;;;;22.77;8.50;;;7.60;99.90;;;;;;5027583;28;20611;-92
2021/12/16 08:54:18;;;;;;;20.65;8.25;;;8.50;99.90;;;;;;5026836;28;20083;-92
2021/12/16 08:56:44;;;;;;;20.55;7.60;;;7.70;99.90;;;;;;5028198;28;20823;-93
2021/12/16 08:59:10;;;;;;;19.23;8.48;;;9.90;99.90;;;;;;5042845;28;20049;-91
2021/12/16 09:01:45;;;;;;;22.80;8.25;;;7.80;99.90;;;;;;5028142;28;20128;-91
2021/12/16 09:04:12;;;;;;;23.52;7.90;;;7.80;99.90;;;;;;5026792;28;20048;-91
2021/12/16 09:06:38;;;;;;;25.92;8.30;;;9.70;99.90;;;;;;5028121;28;20040;-91
2021/12/16 09:09:07;;;;;;;17.90;8.48;;;7.80;99.90;;;;;;5026902;28;20132;-90
2021/12/16 09:11:38;;;;;;;19.98;9.60;;;7.80;99.90;;;;;;5060561;28;20131;-92
2021/12/16 09:14:04;;;;;;;23.05;9.68;;;8.20;99.90;;;;;;5028691;28;20041;-93
2021/12/16 09:16:32;;;;;;;21.58;9.90;;;7.80;99.90;;;;;;5027476;28;20507;-96
2021/12/16 09:19:00;;;;;;;24.20;9.75;;;7.80;99.90;;;;;;5028732;28;20101;-89
2021/12/16 09:21:33;;;;;;;33.85;10.98;;;8.80;99.90;;;;;;5043310;28;20079;-90
2021/12/16 09:23:59;;;;;;;21.65;9.30;;;7.80;99.90;;;;;;5027393;28;20590;-91
2021/12/16 09:26:27;;;;;;;22.73;9.32;;;8.60;99.90;;;;;;5027308;28;20589;-92
2021/12/16 09:28:53;;;;;;;31.35;10.43;;;7.90;99.90;;;;;;5027297;28;20487;-90
2021/12/16 09:31:21;;;;;;;29.33;11.40;;;9.70;99.90;;;;;;5013648;28;20048;-87
2021/12/16 09:33:50;;;;;;;32.85;10.77;;;8.60;99.90;;;;;;5044293;28;20484;-90
2021/12/16 09:36:19;;;;;;;33.08;10.15;;;9.40;99.90;;;;;;5031387;28;20484;-91
2021/12/16 09:38:46;;;;;;;22.00;10.30;;;8.20;99.90;;;;;;5029786;28;20049;-88
2021/12/16 09:41:12;;;;;;;25.35;11.30;;;8.10;99.90;;;;;;5011719;28;20080;-86
2021/12/16 09:43:42;;;;;;;28.02;10.45;;;8.10;99.90;;;;;;5027612;28;20044;-90
2021/12/16 09:46:11;;;;;;;31.75;10.93;;;8.10;99.90;;;;;;5042219;28;20099;-90
2021/12/16 09:48:38;;;;;;;25.90;10.40;;;8.20;99.90;;;;;;5043731;28;20072;-89
2021/12/16 09:51:07;;;;;;;24.20;11.20;;;8.20;99.90;;;;;;5024677;28;20404;-88
2021/12/16 09:53:38;;;;;;;29.02;10.02;;;10.00;99.90;;;;;;5043293;28;20523;-91
2021/12/16 09:56:09;;;;;;;24.40;10.98;;;8.30;99.90;;;;;;5042586;28;20041;-89
2021/12/16 09:58:39;;;;;;;29.13;10.57;;;8.30;99.90;;;;;;5025124;28;20045;-89
2021/12/16 10:01:09;;;;;;;31.02;10.07;;;8.40;99.90;;;;;;5026907;28;20043;-89
2021/12/16 10:03:35;;;;;;;40.60;10.18;;;8.40;99.90;;;;;;5025076;28;20136;-90
2021/12/16 10:06:01;;;;;;;32.17;10.60;;;6.80;99.90;;;;;;5010410;28;20049;-90
2021/12/16 10:08:27;;;;;;;29.60;10.20;;;8.50;99.90;;;;;;5008607;28;20041;-89
2021/12/16 10:10:53;;;;;;;34.22;10.70;;;9.50;99.90;;;;;;5010000;28;20037;-89
2021/12/16 10:13:30;;;;;;;24.73;9.95;;;9.90;99.90;;;;;;5025708;28;20053;-89
2021/12/16 10:18:36;;;;;;;36.63;9.43;;;8.60;99.90;;;;;;5044554;28;20161;-92
2021/12/16 10:21:12;;;;;;;25.52;10.48;;;9.00;99.90;;;;;;5022793;28;20097;-90
2021/12/16 10:23:41;;;;;;;24.02;9.55;;;9.20;99.90;;;;;;5026588;28;20080;-89
2021/12/16 10:26:17;;;;;;;27.00;7.80;;;8.70;99.90;;;;;;5040878;28;20052;-90
2021/12/16 10:28:47;;;;;;;24.35;7.95;;;8.50;99.90;;;;;;5023428;28;20044;-89
2021/12/16 10:31:19;;;;;;;18.38;6.35;;;8.70;99.90;;;;;;5043016;28;20528;-90
2021/12/16 10:33:50;;;;;;;25.80;7.32;;;8.70;99.90;;;;;;5041017;28;20469;-89
2021/12/16 10:36:41;;;;;;;15.70;7.90;;;9.10;99.90;;;;;;5042248;28;20045;-89
2021/12/16 10:39:23;;;;;;;14.80;7.75;;;8.70;99.90;;;;;;5042172;28;20084;-89
2021/12/16 10:41:58;;;;;;;22.40;8.20;;;8.70;99.90;;;;;;5024305;28;20052;-89
2021/12/16 10:44:28;;;;;;;23.45;9.32;;;9.70;99.90;;;;;;5026261;28;20053;-89
2021/12/16 10:47:04;;;;;;;27.85;9.32;;;8.70;99.90;;;;;;5024804;28;20052;-88
2021/12/16 10:49:32;;;;;;;24.63;8.30;;;8.70;99.90;;;;;;5025818;28;20532;-89
2021/12/16 10:52:19;;;;;;;28.92;8.75;;;8.70;99.90;;;;;;5025615;28;20037;-89
2021/12/16 10:54:50;;;;;;;18.75;7.85;;;8.70;99.90;;;;;;5044923;28;20045;-89
2021/12/16 10:57:17;;;;;;;24.70;9.15;;;9.00;99.90;;;;;;5030230;28;20401;-89
2021/12/16 10:59:47;;;;;;;19.88;8.85;;;8.70;99.90;;;;;;5044172;28;20511;-89
2021/12/16 11:02:18;;;;;;;18.23;8.50;;;9.10;99.90;;;;;;5030272;28;20045;-90
2021/12/16 11:05:12;;;;;;;19.63;8.52;;;8.70;99.90;;;;;;5030240;28;20041;-89
2021/12/16 11:07:44;;;;;;;16.52;8.07;;;8.70;99.90;;;;;;5029194;28;20131;-90
2021/12/16 11:10:27;;;;;;;16.08;9.02;;;10.10;99.90;;;;;;5035581;28;20091;-91
2021/12/16 11:12:55;;;;;;;25.85;9.15;;;8.80;99.90;;;;;;5048340;28;20090;-91
2021/12/16 11:15:35;;;;;;;18.05;8.65;;;8.80;99.90;;;;;;5041538;28;20041;-91
2021/12/16 11:18:05;;;;;;;22.90;9.13;;;8.80;99.90;;;;;;5043851;28;20174;-90
2021/12/16 11:20:38;;;;;;;19.58;9.77;;;8.80;99.90;;;;;;5044620;28;20096;-92
2021/12/16 11:23:17;;;;;;;15.27;8.25;;;8.80;99.90;;;;;;5040041;28;20072;-90
2021/12/16 11:25:53;;;;;;;23.98;9.10;;;9.70;99.90;;;;;;5030190;28;20047;-91
2021/12/16 11:28:28;;;;;;;18.98;9.02;;;8.90;99.90;;;;;;5030215;28;20075;-91
2021/12/16 11:31:10;;;;;;;21.33;9.30;;;9.50;99.90;;;;;;5030857;28;20037;-90
2021/12/16 11:33:48;;;;;;;22.98;9.30;;;8.90;99.90;;;;;;5029615;28;20048;-92
2021/12/16 11:36:37;;;;;;;27.50;9.52;;;8.90;99.90;;;;;;5030566;28;20048;-92
2021/12/16 11:39:14;;;;;;;26.20;9.60;;;8.80;99.90;;;;;;5029808;28;20056;-90
2021/12/16 11:41:51;;;;;;;23.38;9.98;;;8.90;99.90;;;;;;5027802;28;20053;-90
2021/12/16 11:44:43;;;;;;;24.15;8.77;;;8.90;99.90;;;;;;5048193;28;20489;-90
2021/12/16 11:47:10;;;;;;;16.65;8.80;;;9.00;99.90;;;;;;5047994;28;20045;-89
2021/12/16 11:49:46;;;;;;;20.38;8.43;;;8.90;99.90;;;;;;5049797;28;20084;-90
2021/12/16 11:52:14;;;;;;;20.45;9.70;;;8.90;99.90;;;;;;5033871;28;20033;-91
2021/12/16 11:54:50;;;;;;;25.17;10.13;;;10.10;99.90;;;;;;5048165;28;20084;-91
2021/12/16 11:57:40;;;;;;;28.10;10.82;;;8.90;99.90;;;;;;5034218;28;20606;-90
2021/12/16 12:00:15;;;;;;;25.30;10.50;;;8.90;99.90;;;;;;5029787;28;20443;-90
2021/12/16 12:02:45;;;;;;;24.25;11.05;;;8.90;99.90;;;;;;5026836;28;20048;-90
2021/12/16 12:05:16;;;;;;;23.30;11.50;;;8.90;99.90;;;;;;5045396;28;20487;-90
2021/12/16 12:07:44;;;;;;;27.60;10.95;;;8.90;99.90;;;;;;5026825;28;20087;-90
2021/12/16 12:10:11;;;;;;;29.30;11.32;;;9.00;99.90;;;;;;5028851;28;20076;-90
2021/12/16 12:12:46;;;;;;;29.08;11.18;;;10.50;99.90;;;;;;5027661;28;20393;-90
2021/12/16 12:15:15;;;;;;;25.25;11.40;;;9.00;99.90;;;;;;5044192;28;20045;-89
2021/12/16 12:17:48;;;;;;;23.48;11.50;;;10.60;99.90;;;;;;5044558;28;20049;-89
2021/12/16 12:20:15;;;;;;;24.50;10.68;;;8.90;99.90;;;;;;5043017;28;20142;-89
2021/12/16 12:22:40;;;;;;;26.38;10.85;;;9.90;99.90;;;;;;5028057;28;20049;-89
2021/12/16 12:25:06;;;;;;;25.20;10.50;;;10.10;99.90;;;;;;5010893;28;20067;-89
2021/12/16 12:27:32;;;;;;;24.23;10.05;;;8.90;99.90;;;;;;5028806;28;20048;-87
2021/12/16 12:30:02;;;;;;;27.05;10.95;;;8.90;99.90;;;;;;5027005;28;20633;-88
2021/12/16 12:32:32;;;;;;;32.35;11.80;;;8.90;99.90;;;;;;5027402;28;20053;-90
2021/12/16 12:35:07;;;;;;;23.95;11.50;;;10.50;99.90;;;;;;5027436;28;20045;-89
2021/12/16 12:37:36;;;;;;;26.55;12.25;;;8.90;99.90;;;;;;5044308;28;20061;-87
2021/12/16 12:40:27;;;;;;;24.77;11.05;;;8.90;99.90;;;;;;5044817;28;20492;-87
2021/12/16 12:42:54;;;;;;;34.38;11.10;;;9.00;99.90;;;;;;5043746;28;20051;-87
2021/12/16 12:45:28;;;;;;;26.13;11.52;;;9.00;99.90;;;;;;4994724;28;20122;-87
2021/12/16 12:47:58;;;;;;;23.75;10.85;;;9.00;99.90;;;;;;5044640;28;20048;-87
2021/12/16 12:50:37;;;;;;;30.17;12.05;;;9.00;99.90;;;;;;5026206;28;20037;-90
2021/12/16 12:53:19;;;;;;;23.23;10.70;;;9.00;99.90;;;;;;5027698;28;20084;-89
2021/12/16 12:55:46;;;;;;;24.60;12.60;;;9.00;99.90;;;;;;5043542;28;20982;-89
2021/12/16 12:58:19;;;;;;;22.80;10.85;;;9.00;99.90;;;;;;5027273;28;20535;-90
2021/12/16 13:00:44;;;;;;;;;;;9.00;99.90;;;;;;5045191;28;20045;-89
2021/12/16 13:03:17;;;;;;;19.42;10.85;;;9.00;99.90;;;;;;5039918;28;19921;-89
2021/12/16 13:06:05;;;;;;;20.77;9.20;;;10.20;99.90;;;;;;5028154;28;20129;-90
2021/12/16 13:08:34;;;;;;;24.73;10.52;;;9.10;99.90;;;;;;5046947;28;20057;-90
2021/12/16 13:11:09;;;;;;;24.63;10.77;;;10.20;99.90;;;;;;5042154;28;20060;-89
2021/12/16 13:13:45;;;;;;;24.63;11.07;;;9.10;99.90;;;;;;5026753;28;20106;-89
2021/12/16 13:16:51;;;;;;;22.40;11.07;;;11.00;99.90;;;;;;5041432;28;20048;-89
2021/12/16 13:28:17;;;;;;;21.98;11.43;;;9.10;99.90;;;;;;5043073;28;20369;-89
2021/12/16 13:33:54;;;;;;;21.45;10.85;;;9.10;99.90;;;;;;5029191;28;20087;-90
2021/12/16 13:36:40;;;;;;;23.02;10.55;;;9.60;99.90;;;;;;5012349;28;20326;-89
2021/12/16 13:39:29;;;;;;;24.52;10.43;;;9.10;99.90;;;;;;5027108;28;20128;-89
2021/12/16 13:42:08;;;;;;;25.95;11.38;;;9.70;99.90;;;;;;5039532;28;20819;-89
2021/12/16 13:44:57;;;;;;;26.75;10.95;;;9.10;99.90;;;;;;5026698;28;20136;-89
2021/12/16 14:02:00;;;;;;;20.63;8.65;;;9.30;99.90;;;;;;5045461;28;20049;-90
2021/12/16 14:10:20;;;;;;;14.95;7.43;;;9.30;99.90;;;;;;5040760;28;20041;-90
2021/12/16 14:16:31;;;;;;;20.02;7.15;;;9.30;99.90;;;;;;5042795;28;20102;-89
2021/12/16 14:25:12;;;;;;;17.55;6.22;;;9.30;99.90;;;;;;5041529;28;20685;-89
2021/12/16 14:41:14;;;;;;;12.73;5.32;;;9.30;99.90;;;;;;5042085;28;20053;-90
2021/12/16 14:43:54;;;;;;;13.45;5.40;;;9.20;99.90;;;;;;5042862;28;20056;-90
2021/12/16 14:46:25;;;;;;;10.75;5.68;;;9.80;99.90;;;;;;5024725;28;20049;-89
2021/12/16 14:48:51;;;;;;;14.45;5.32;;;9.20;99.90;;;;;;5042798;28;20044;-90
2021/12/16 14:51:17;;;;;;;16.92;5.68;;;10.40;99.90;;;;;;5024346;28;20501;-89
2021/12/16 14:53:49;;;;;;;13.60;5.80;;;9.20;99.90;;;;;;5043045;28;20441;-90
2021/12/16 14:56:31;;;;;;;18.95;6.60;;;9.20;99.90;;;;;;5025903;28;20396;-90
2021/12/16 14:59:11;;;;;;;23.10;7.60;;;9.20;99.90;;;;;;5036159;28;20161;-88
2021/12/16 15:01:44;;;;;;;17.80;6.90;;;9.20;99.90;;;;;;5025963;28;20056;-90
2021/12/16 15:04:15;;;;;;;18.60;6.63;;;9.10;99.90;;;;;;5024004;28;20045;-92
2021/12/16 15:06:57;;;;;;;19.70;7.10;;;9.10;99.90;;;;;;5022460;28;20086;-90
2021/12/16 15:09:32;;;;;;;18.55;6.82;;;9.10;99.90;;;;;;5025247;28;20052;-90
2021/12/16 15:31:52;;;;;;;19.27;6.97;;;9.90;99.90;;;;;;5041797;28;20052;-90
2021/12/16 15:36:50;;;;;;;16.35;7.30;;;8.90;99.90;;;;;;5043168;28;20396;-89
2021/12/16 15:44:18;;;;;;;19.42;8.75;;;8.80;99.90;;;;;;5046272;28;20408;-90
2021/12/16 15:46:44;;;;;;;19.25;8.60;;;8.80;99.90;;;;;;5027237;28;20559;-90
2021/12/16 15:49:10;;;;;;;19.42;8.32;;;9.30;99.90;;;;;;5029228;28;20037;-89
2021/12/16 15:51:36;;;;;;;15.48;7.05;;;9.70;99.90;;;;;;5044657;28;20052;-90
2021/12/16 15:54:04;;;;;;;19.38;8.85;;;8.80;99.90;;;;;;5046526;28;20071;-90
2021/12/16 15:56:38;;;;;;;21.40;8.82;;;8.80;99.90;;;;;;5028494;28;20041;-90
2021/12/16 15:59:14;;;;;;;19.05;7.60;;;8.80;99.90;;;;;;5045492;28;20052;-89
2021/12/16 16:01:52;;;;;;;21.30;9.38;;;8.80;99.90;;;;;;5045794;28;20434;-87
2021/12/16 16:04:28;;;;;;;20.98;8.75;;;8.80;99.90;;;;;;5045608;28;20060;-94
2021/12/16 16:06:58;;;;;;;21.17;9.45;;;9.30;99.90;;;;;;5045440;28;20041;-88
2021/12/16 16:09:27;;;;;;;18.45;8.45;;;9.60;99.90;;;;;;5045571;28;20052;-89
2021/12/16 16:11:56;;;;;;;16.73;8.65;;;8.70;99.90;;;;;;5043711;28;20054;-89
2021/12/16 16:14:24;;;;;;;20.85;8.57;;;10.40;99.90;;;;;;5028717;28;20456;-92
2021/12/16 16:16:54;;;;;;;24.00;9.27;;;8.80;99.90;;;;;;5045627;28;20049;-88
2021/12/16 16:19:26;;;;;;;18.30;7.78;;;8.70;99.90;;;;;;5049479;28;20045;-93
2021/12/16 16:21:56;;;;;;;20.42;9.75;;;9.00;99.90;;;;;;5033303;28;20045;-93
2021/12/16 16:24:33;;;;;;;23.38;9.32;;;8.80;99.90;;;;;;5029834;28;20045;-93
2021/12/16 16:27:02;;;;;;;25.67;9.98;;;9.60;99.90;;;;;;5030669;28;20045;-93
2021/12/16 16:29:32;;;;;;;22.00;8.93;;;8.80;99.90;;;;;;5029012;28;20049;-93
2021/12/16 16:31:59;;;;;;;23.52;10.00;;;8.80;99.90;;;;;;5032204;28;20513;-93
2021/12/16 16:34:26;;;;;;;25.83;9.95;;;8.80;99.90;;;;;;5011389;28;20064;-90
2021/12/16 16:36:55;;;;;;;24.55;10.15;;;10.70;99.90;;;;;;5029060;28;20048;-92
2021/12/16 16:39:25;;;;;;;30.58;10.88;;;8.80;99.90;;;;;;5027927;28;20049;-92
2021/12/16 16:41:58;;;;;;;27.55;10.32;;;9.70;99.90;;;;;;5026908;28;20040;-95
2021/12/16 16:44:26;;;;;;;32.05;11.02;;;11.00;99.90;;;;;;5028022;28;20055;-88
2021/12/16 16:47:01;;;;;;;26.08;10.65;;;8.80;99.90;;;;;;5044392;28;20056;-88
2021/12/16 16:49:49;;;;;;;25.75;10.43;;;9.50;99.90;;;;;;5028123;28;20041;-89
2021/12/16 16:52:28;;;;;;;24.23;10.38;;;8.80;99.90;;;;;;5027554;28;20045;-85
2021/12/16 16:55:12;;;;;;;26.30;10.55;;;8.80;99.90;;;;;;5026352;28;20064;-85
2021/12/16 16:57:39;;;;;;;30.35;10.85;;;8.80;99.90;;;;;;5044437;28;20508;-89
2021/12/16 17:00:35;;;;;;;27.13;11.40;;;9.60;99.90;;;;;;5042822;28;20037;-88